sensor_id;sensor_type;location;lat;lon;timestamp;pressure;altitude;pressure_sealevel;temperature;humidity
16690;BME280;8458;52.220;9.884;2023-05-20T00:01:26;101689.97;;;14.48;62.06
16690;BME280;8458;52.220;9.884;2023-05-20T00:03:53;101689.97;;;14.48;62.25
16690;BME280;8458;52.220;9.884;2023-05-20T00:06:19;101691.56;;;14.39;62.41
16690;BME280;8458;52.220;9.884;2023-05-20T00:08:46;101686.56;;;14.41;62.56
16690;BME280;8458;52.220;9.884;2023-05-20T00:11:12;101688.78;;;14.39;62.72
16690;BME280;8458;52.220;9.884;2023-05-20T00:13:40;101688.78;;;14.39;62.95
16690;BME280;8458;52.220;9.884;2023-05-20T00:16:07;101687.13;;;14.43;62.95
16690;BME280;8458;52.220;9.884;2023-05-20T00:18:33;101688.19;;;14.37;63.29
16690;BME280;8458;52.220;9.884;2023-05-20T00:21:00;101691.56;;;14.39;62.84
16690;BME280;8458;52.220;9.884;2023-05-20T00:23:26;101693.19;;;14.35;62.73
16690;BME280;8458;52.220;9.884;2023-05-20T00:25:53;101689.25;;;14.31;62.98
16690;BME280;8458;52.220;9.884;2023-05-20T00:28:19;101686.72;;;14.29;63.11
16690;BME280;8458;52.220;9.884;2023-05-20T00:30:49;101684.53;;;14.31;62.93
16690;BME280;8458;52.220;9.884;2023-05-20T00:33:15;101681.09;;;14.24;63.26
16690;BME280;8458;52.220;9.884;2023-05-20T00:35:42;101682.00;;;14.30;63.00
16690;BME280;8458;52.220;9.884;2023-05-20T00:38:08;101674.72;;;14.29;63.26
16690;BME280;8458;52.220;9.884;2023-05-20T00:40:35;101673.56;;;14.25;63.44
16690;BME280;8458;52.220;9.884;2023-05-20T00:43:01;101672.72;;;14.24;63.65
16690;BME280;8458;52.220;9.884;2023-05-20T00:45:28;101669.06;;;14.19;63.69
16690;BME280;8458;52.220;9.884;2023-05-20T00:47:56;101671.50;;;14.10;64.14
16690;BME280;8458;52.220;9.884;2023-05-20T00:50:26;101674.03;;;14.11;64.08
16690;BME280;8458;52.220;9.884;2023-05-20T00:52:52;101666.50;;;14.12;63.90
16690;BME280;8458;52.220;9.884;2023-05-20T00:55:19;101666.44;;;14.07;63.56
16690;BME280;8458;52.220;9.884;2023-05-20T00:57:46;101674.44;;;13.98;63.57
16690;BME280;8458;52.220;9.884;2023-05-20T01:00:13;101667.13;;;13.92;63.97
16690;BME280;8458;52.220;9.884;2023-05-20T01:02:40;101675.06;;;13.78;64.86
16690;BME280;8458;52.220;9.884;2023-05-20T01:05:08;101674.25;;;13.77;65.47
16690;BME280;8458;52.220;9.884;2023-05-20T01:07:34;101672.56;;;13.76;65.75
16690;BME280;8458;52.220;9.884;2023-05-20T01:10:01;101675.59;;;13.75;65.94
16690;BME280;8458;52.220;9.884;2023-05-20T01:12:31;101672.03;;;13.79;65.95
16690;BME280;8458;52.220;9.884;2023-05-20T01:15:05;101669.28;;;13.85;65.68
16690;BME280;8458;52.220;9.884;2023-05-20T01:17:35;101672.56;;;13.76;65.88
16690;BME280;8458;52.220;9.884;2023-05-20T01:20:04;101669.19;;;13.74;66.01
16690;BME280;8458;52.220;9.884;2023-05-20T01:22:37;101668.56;;;13.67;66.60
16690;BME280;8458;52.220;9.884;2023-05-20T01:25:04;101661.25;;;13.61;67.13
16690;BME280;8458;52.220;9.884;2023-05-20T01:27:30;101662.34;;;13.60;66.94
16690;BME280;8458;52.220;9.884;2023-05-20T01:29:57;101660.97;;;13.62;66.84
16690;BME280;8458;52.220;9.884;2023-05-20T01:32:26;101661.94;;;13.73;66.75
16690;BME280;8458;52.220;9.884;2023-05-20T01:34:54;101658.03;;;13.74;66.42
16690;BME280;8458;52.220;9.884;2023-05-20T01:37:21;101659.19;;;13.78;65.93
16690;BME280;8458;52.220;9.884;2023-05-20T01:39:51;101658.03;;;13.74;66.32
16690;BME280;8458;52.220;9.884;2023-05-20T01:42:19;101653.00;;;13.71;66.54
16690;BME280;8458;52.220;9.884;2023-05-20T01:44:46;101660.22;;;13.72;66.17
16690;BME280;8458;52.220;9.884;2023-05-20T01:47:13;101651.31;;;13.70;66.44
16690;BME280;8458;52.220;9.884;2023-05-20T01:49:39;101652.56;;;13.57;66.45
16690;BME280;8458;52.220;9.884;2023-05-20T01:52:06;101660.16;;;13.62;66.50
16690;BME280;8458;52.220;9.884;2023-05-20T01:54:33;101652.88;;;13.61;66.30
16690;BME280;8458;52.220;9.884;2023-05-20T01:57:01;101649.53;;;13.59;66.44
16690;BME280;8458;52.220;9.884;2023-05-20T01:59:27;101642.81;;;13.60;66.34
16690;BME280;8458;52.220;9.884;2023-05-20T02:01:54;101641.72;;;13.61;66.06
16690;BME280;8458;52.220;9.884;2023-05-20T02:04:20;101647.31;;;13.61;66.12
16690;BME280;8458;52.220;9.884;2023-05-20T02:06:47;101651.69;;;13.57;66.21
16690;BME280;8458;52.220;9.884;2023-05-20T02:09:13;101650.03;;;13.56;66.56
16690;BME280;8458;52.220;9.884;2023-05-20T02:11:40;101644.91;;;13.48;66.79
16690;BME280;8458;52.220;9.884;2023-05-20T02:14:08;101649.69;;;13.52;66.91
16690;BME280;8458;52.220;9.884;2023-05-20T02:16:35;101643.88;;;13.54;66.68
16690;BME280;8458;52.220;9.884;2023-05-20T02:19:01;101652.56;;;13.57;66.54
16690;BME280;8458;52.220;9.884;2023-05-20T02:21:28;101642.78;;;13.55;66.28
16690;BME280;8458;52.220;9.884;2023-05-20T02:23:55;101649.34;;;13.43;66.89
16690;BME280;8458;52.220;9.884;2023-05-20T02:26:21;101645.66;;;13.38;67.33
16690;BME280;8458;52.220;9.884;2023-05-20T02:28:49;101651.41;;;13.31;67.93
16690;BME280;8458;52.220;9.884;2023-05-20T02:31:17;101646.66;;;13.32;68.05
16690;BME280;8458;52.220;9.884;2023-05-20T02:33:43;101648.69;;;13.36;67.84
16690;BME280;8458;52.220;9.884;2023-05-20T02:36:10;101650.03;;;13.34;68.42
16690;BME280;8458;52.220;9.884;2023-05-20T02:38:36;101654.19;;;13.31;68.44
16690;BME280;8458;52.220;9.884;2023-05-20T02:41:03;101646.44;;;13.33;68.53
16690;BME280;8458;52.220;9.884;2023-05-20T02:43:30;101648.69;;;13.36;68.67
16690;BME280;8458;52.220;9.884;2023-05-20T02:45:56;101646.75;;;13.37;68.55
16690;BME280;8458;52.220;9.884;2023-05-20T02:48:24;101648.88;;;13.30;69.10
16690;BME280;8458;52.220;9.884;2023-05-20T02:50:51;101643.69;;;13.38;68.92
16690;BME280;8458;52.220;9.884;2023-05-20T02:53:18;101647.91;;;13.41;68.94
16690;BME280;8458;52.220;9.884;2023-05-20T02:55:45;101647.34;;;13.39;68.55
16690;BME280;8458;52.220;9.884;2023-05-20T02:58:12;101651.53;;;13.41;68.73
16690;BME280;8458;52.220;9.884;2023-05-20T03:00:39;101645.97;;;13.41;68.80
16690;BME280;8458;52.220;9.884;2023-05-20T03:03:05;101652.69;;;13.45;68.51
16690;BME280;8458;52.220;9.884;2023-05-20T03:05:34;101652.44;;;13.47;68.43
16690;BME280;8458;52.220;9.884;2023-05-20T03:08:02;101651.59;;;13.47;68.50
16690;BME280;8458;52.220;9.884;2023-05-20T03:10:28;101648.88;;;13.52;68.25
16690;BME280;8458;52.220;9.884;2023-05-20T03:12:55;101648.56;;;13.48;68.41
16690;BME280;8458;52.220;9.884;2023-05-20T03:15:21;101654.97;;;13.49;68.43
16690;BME280;8458;52.220;9.884;2023-05-20T03:17:48;101660.00;;;13.52;68.23
16690;BME280;8458;52.220;9.884;2023-05-20T03:20:14;101643.81;;;13.49;68.11
16690;BME280;8458;52.220;9.884;2023-05-20T03:22:43;101654.44;;;13.52;68.42
16690;BME280;8458;52.220;9.884;2023-05-20T03:25:09;101640.81;;;13.55;68.22
16690;BME280;8458;52.220;9.884;2023-05-20T03:27:36;101647.00;;;13.57;68.12
16690;BME280;8458;52.220;9.884;2023-05-20T03:30:04;101644.50;;;13.61;68.23
16690;BME280;8458;52.220;9.884;2023-05-20T03:32:31;101649.53;;;13.59;68.28
16690;BME280;8458;52.220;9.884;2023-05-20T03:34:57;101647.31;;;13.61;67.88
16690;BME280;8458;52.220;9.884;2023-05-20T03:37:24;101642.25;;;13.58;68.02
16690;BME280;8458;52.220;9.884;2023-05-20T03:39:52;101644.25;;;13.62;67.71
16690;BME280;8458;52.220;9.884;2023-05-20T03:42:18;101649.19;;;13.55;67.87
16690;BME280;8458;52.220;9.884;2023-05-20T03:44:44;101651.34;;;13.48;68.22
16690;BME280;8458;52.220;9.884;2023-05-20T03:47:11;101653.47;;;13.41;68.15
16690;BME280;8458;52.220;9.884;2023-05-20T03:49:37;101654.91;;;13.43;67.99
16690;BME280;8458;52.220;9.884;2023-05-20T03:52:05;101654.00;;;13.38;68.29
16690;BME280;8458;52.220;9.884;2023-05-20T03:54:32;101657.06;;;13.36;68.54
16690;BME280;8458;52.220;9.884;2023-05-20T03:57:01;101653.47;;;13.41;68.12
16690;BME280;8458;52.220;9.884;2023-05-20T03:59:28;101653.16;;;13.37;68.34
16690;BME280;8458;52.220;9.884;2023-05-20T04:01:54;101657.06;;;13.36;68.36
16690;BME280;8458;52.220;9.884;2023-05-20T04:04:22;101656.84;;;13.43;67.99
16690;BME280;8458;52.220;9.884;2023-05-20T04:06:48;101661.59;;;13.42;67.56
16690;BME280;8458;52.220;9.884;2023-05-20T04:09:15;101659.25;;;13.34;68.23
16690;BME280;8458;52.220;9.884;2023-05-20T04:11:41;101663.56;;;13.25;68.73
16690;BME280;8458;52.220;9.884;2023-05-20T04:14:09;101666.34;;;13.25;68.64
16690;BME280;8458;52.220;9.884;2023-05-20T04:16:35;101664.91;;;13.22;68.68
16690;BME280;8458;52.220;9.884;2023-05-20T04:19:03;101664.47;;;13.31;68.36
16690;BME280;8458;52.220;9.884;2023-05-20T04:21:29;101655.53;;;13.28;68.51
16690;BME280;8458;52.220;9.884;2023-05-20T04:23:56;101653.06;;;13.32;68.59
16690;BME280;8458;52.220;9.884;2023-05-20T04:26:22;101648.59;;;13.31;68.69
16690;BME280;8458;52.220;9.884;2023-05-20T04:28:49;101644.06;;;13.25;68.83
16690;BME280;8458;52.220;9.884;2023-05-20T04:31:17;101650.78;;;13.29;68.92
16690;BME280;8458;52.220;9.884;2023-05-20T04:33:45;101643.03;;;13.31;69.07
16690;BME280;8458;52.220;9.884;2023-05-20T04:36:11;101647.44;;;13.27;69.18
16690;BME280;8458;52.220;9.884;2023-05-20T04:38:40;101645.75;;;13.26;69.26
16690;BME280;8458;52.220;9.884;2023-05-20T04:41:08;101638.50;;;13.25;69.25
16690;BME280;8458;52.220;9.884;2023-05-20T04:43:35;101641.69;;;13.34;69.11
16690;BME280;8458;52.220;9.884;2023-05-20T04:46:04;101631.03;;;13.31;68.96
16690;BME280;8458;52.220;9.884;2023-05-20T04:48:32;101635.28;;;13.33;69.25
16690;BME280;8458;52.220;9.884;2023-05-20T04:50:59;101630.78;;;13.32;69.38
16690;BME280;8458;52.220;9.884;2023-05-20T04:53:26;101631.25;;;13.24;69.51
16690;BME280;8458;52.220;9.884;2023-05-20T04:55:55;101633.97;;;13.19;69.50
16690;BME280;8458;52.220;9.884;2023-05-20T04:58:22;101629.53;;;13.23;69.68
16690;BME280;8458;52.220;9.884;2023-05-20T05:00:50;101630.66;;;13.22;69.56
16690;BME280;8458;52.220;9.884;2023-05-20T05:03:17;101634.28;;;13.22;69.40
16690;BME280;8458;52.220;9.884;2023-05-20T05:05:44;101633.06;;;13.35;68.92
16690;BME280;8458;52.220;9.884;2023-05-20T05:08:11;101644.69;;;13.32;69.21
16690;BME280;8458;52.220;9.884;2023-05-20T05:10:37;101639.34;;;13.25;69.67
16690;BME280;8458;52.220;9.884;2023-05-20T05:13:04;101630.94;;;13.20;70.16
16690;BME280;8458;52.220;9.884;2023-05-20T05:15:30;101638.63;;;13.13;70.35
16690;BME280;8458;52.220;9.884;2023-05-20T05:17:57;101641.94;;;13.10;70.75
16690;BME280;8458;52.220;9.884;2023-05-20T05:20:23;101637.38;;;13.04;70.92
16690;BME280;8458;52.220;9.884;2023-05-20T05:22:51;101641.22;;;12.98;71.38
16690;BME280;8458;52.220;9.884;2023-05-20T05:25:18;101644.19;;;12.91;72.09
16690;BME280;8458;52.220;9.884;2023-05-20T05:27:44;101639.13;;;12.88;72.84
16690;BME280;8458;52.220;9.884;2023-05-20T05:30:13;101647.75;;;12.86;73.58
16690;BME280;8458;52.220;9.884;2023-05-20T05:32:39;101645.88;;;12.92;73.12
16690;BME280;8458;52.220;9.884;2023-05-20T05:35:06;101643.16;;;12.97;73.28
16690;BME280;8458;52.220;9.884;2023-05-20T05:37:33;101638.94;;;12.95;73.48
16690;BME280;8458;52.220;9.884;2023-05-20T05:40:01;101637.28;;;12.94;73.69
16690;BME280;8458;52.220;9.884;2023-05-20T05:42:28;101644.75;;;12.93;73.72
16690;BME280;8458;52.220;9.884;2023-05-20T05:44:54;101632.75;;;12.87;73.68
16690;BME280;8458;52.220;9.884;2023-05-20T05:47:21;101640.47;;;12.85;74.01
16690;BME280;8458;52.220;9.884;2023-05-20T05:49:47;101639.34;;;12.81;74.38
16690;BME280;8458;52.220;9.884;2023-05-20T05:52:14;101644.03;;;12.81;74.38
16690;BME280;8458;52.220;9.884;2023-05-20T05:54:41;101630.63;;;12.78;74.49
16690;BME280;8458;52.220;9.884;2023-05-20T05:57:08;101636.81;;;12.80;75.20
16690;BME280;8458;52.220;9.884;2023-05-20T05:59:36;101638.47;;;12.81;75.52
16690;BME280;8458;52.220;9.884;2023-05-20T06:02:02;101643.72;;;12.77;75.70
16690;BME280;8458;52.220;9.884;2023-05-20T06:04:29;101632.66;;;12.82;76.32
16690;BME280;8458;52.220;9.884;2023-05-20T06:06:55;101629.88;;;12.82;76.10
16690;BME280;8458;52.220;9.884;2023-05-20T06:09:22;101626.25;;;12.82;76.22
16690;BME280;8458;52.220;9.884;2023-05-20T06:11:48;101630.72;;;12.83;76.31
16690;BME280;8458;52.220;9.884;2023-05-20T06:14:16;101639.13;;;12.88;76.20
16690;BME280;8458;52.220;9.884;2023-05-20T06:16:42;101640.31;;;12.92;76.60
16690;BME280;8458;52.220;9.884;2023-05-20T06:19:09;101647.28;;;12.95;76.57
16690;BME280;8458;52.220;9.884;2023-05-20T06:21:35;101642.66;;;13.00;76.99
16690;BME280;8458;52.220;9.884;2023-05-20T06:24:03;101643.31;;;13.07;76.83
16690;BME280;8458;52.220;9.884;2023-05-20T06:26:29;101630.88;;;13.15;76.16
16690;BME280;8458;52.220;9.884;2023-05-20T06:28:56;101633.47;;;13.22;76.07
16690;BME280;8458;52.220;9.884;2023-05-20T06:31:23;101640.16;;;13.26;76.38
16690;BME280;8458;52.220;9.884;2023-05-20T06:33:50;101639.38;;;13.31;76.26
16690;BME280;8458;52.220;9.884;2023-05-20T06:36:17;101641.34;;;13.30;75.71
16690;BME280;8458;52.220;9.884;2023-05-20T06:38:43;101635.84;;;13.35;75.92
16690;BME280;8458;52.220;9.884;2023-05-20T06:41:09;101635.94;;;13.40;75.82
16690;BME280;8458;52.220;9.884;2023-05-20T06:43:36;101634.81;;;13.41;75.84
16690;BME280;8458;52.220;9.884;2023-05-20T06:46:04;101633.72;;;13.42;76.03
16690;BME280;8458;52.220;9.884;2023-05-20T06:48:32;101637.59;;;13.41;75.56
16690;BME280;8458;52.220;9.884;2023-05-20T06:50:59;101633.72;;;13.42;75.97
16690;BME280;8458;52.220;9.884;2023-05-20T06:53:25;101625.41;;;13.48;76.03
16690;BME280;8458;52.220;9.884;2023-05-20T06:55:52;101627.09;;;13.49;76.21
16690;BME280;8458;52.220;9.884;2023-05-20T06:58:19;101622.69;;;13.53;76.48
16690;BME280;8458;52.220;9.884;2023-05-20T07:00:46;101615.22;;;13.58;76.43
16690;BME280;8458;52.220;9.884;2023-05-20T07:03:13;101624.47;;;13.64;76.44
16690;BME280;8458;52.220;9.884;2023-05-20T07:05:41;101629.53;;;13.67;76.88
16690;BME280;8458;52.220;9.884;2023-05-20T07:08:08;101625.13;;;13.71;76.45
16690;BME280;8458;52.220;9.884;2023-05-20T07:10:34;101611.19;;;13.71;75.77
16690;BME280;8458;52.220;9.884;2023-05-20T07:13:01;101613.91;;;13.66;75.31
16690;BME280;8458;52.220;9.884;2023-05-20T07:15:28;101613.34;;;13.64;75.73
16690;BME280;8458;52.220;9.884;2023-05-20T07:17:54;101606.06;;;13.63;75.91
16690;BME280;8458;52.220;9.884;2023-05-20T07:20:20;101611.97;;;13.67;76.35
16690;BME280;8458;52.220;9.884;2023-05-20T07:22:48;101602.31;;;13.74;76.28
16690;BME280;8458;52.220;9.884;2023-05-20T07:25:15;101607.66;;;13.81;76.37
16690;BME280;8458;52.220;9.884;2023-05-20T07:27:42;101607.41;;;13.88;76.60
16690;BME280;8458;52.220;9.884;2023-05-20T07:30:08;101594.91;;;13.90;76.32
16690;BME280;8458;52.220;9.884;2023-05-20T07:32:35;101585.75;;;13.95;76.09
16690;BME280;8458;52.220;9.884;2023-05-20T07:35:02;101585.53;;;14.02;75.93
16690;BME280;8458;52.220;9.884;2023-05-20T07:37:28;101590.91;;;14.08;75.64
16690;BME280;8458;52.220;9.884;2023-05-20T07:39:56;101592.56;;;14.09;75.33
16690;BME280;8458;52.220;9.884;2023-05-20T07:42:23;101600.44;;;14.18;74.43
16690;BME280;8458;52.220;9.884;2023-05-20T07:44:49;101593.28;;;14.27;74.06
16690;BME280;8458;52.220;9.884;2023-05-20T07:47:15;101601.38;;;14.28;73.59
16690;BME280;8458;52.220;9.884;2023-05-20T07:49:42;101593.56;;;14.30;73.63
16690;BME280;8458;52.220;9.884;2023-05-20T07:52:11;101598.31;;;14.30;74.03
16690;BME280;8458;52.220;9.884;2023-05-20T07:54:37;101595.25;;;14.31;73.69
16690;BME280;8458;52.220;9.884;2023-05-20T07:57:05;101589.41;;;14.33;74.37
16690;BME280;8458;52.220;9.884;2023-05-20T07:59:31;101591.66;;;14.36;74.31
16690;BME280;8458;52.220;9.884;2023-05-20T08:01:58;101577.44;;;14.38;74.04
16690;BME280;8458;52.220;9.884;2023-05-20T08:04:24;101580.25;;;14.43;74.14
16690;BME280;8458;52.220;9.884;2023-05-20T08:06:51;101582.25;;;14.47;75.38
16690;BME280;8458;52.220;9.884;2023-05-20T08:09:18;101584.75;;;14.49;75.27
16690;BME280;8458;52.220;9.884;2023-05-20T08:11:45;101588.38;;;14.49;74.03
16690;BME280;8458;52.220;9.884;2023-05-20T08:14:12;101583.34;;;14.46;73.68
16690;BME280;8458;52.220;9.884;2023-05-20T08:16:40;101584.47;;;14.45;73.03
16690;BME280;8458;52.220;9.884;2023-05-20T08:19:07;101583.31;;;14.41;73.09
16690;BME280;8458;52.220;9.884;2023-05-20T08:21:34;101590.59;;;14.42;73.96
16690;BME280;8458;52.220;9.884;2023-05-20T08:24:00;101587.00;;;14.47;74.38
16690;BME280;8458;52.220;9.884;2023-05-20T08:26:27;101583.34;;;14.51;74.88
16690;BME280;8458;52.220;9.884;2023-05-20T08:28:54;101577.81;;;14.57;75.08
16690;BME280;8458;52.220;9.884;2023-05-20T08:31:22;101588.44;;;14.60;74.38
16690;BME280;8458;52.220;9.884;2023-05-20T08:33:48;101583.97;;;14.59;74.26
16690;BME280;8458;52.220;9.884;2023-05-20T08:36:15;101574.19;;;14.56;74.28
16690;BME280;8458;52.220;9.884;2023-05-20T08:38:43;101577.88;;;14.62;74.91
16690;BME280;8458;52.220;9.884;2023-05-20T08:41:10;101581.22;;;14.64;75.62
16690;BME280;8458;52.220;9.884;2023-05-20T08:43:36;101577.28;;;14.60;75.20
16690;BME280;8458;52.220;9.884;2023-05-20T08:46:03;101578.97;;;14.61;74.69
16690;BME280;8458;52.220;9.884;2023-05-20T08:48:32;101572.81;;;14.59;74.69
16690;BME280;8458;52.220;9.884;2023-05-20T08:51:01;101567.22;;;14.59;75.03
16690;BME280;8458;52.220;9.884;2023-05-20T08:53:28;101570.00;;;14.59;75.47
16690;BME280;8458;52.220;9.884;2023-05-20T08:55:56;101575.03;;;14.57;75.32
16690;BME280;8458;52.220;9.884;2023-05-20T08:58:27;101568.06;;;14.59;75.35
16690;BME280;8458;52.220;9.884;2023-05-20T09:00:53;101564.97;;;14.56;75.68
16690;BME280;8458;52.220;9.884;2023-05-20T09:03:20;101566.41;;;14.58;75.51
16690;BME280;8458;52.220;9.884;2023-05-20T09:05:49;101567.81;;;14.61;75.46
16690;BME280;8458;52.220;9.884;2023-05-20T09:08:16;101571.97;;;14.58;74.81
16690;BME280;8458;52.220;9.884;2023-05-20T09:10:42;101561.63;;;14.59;74.43
16690;BME280;8458;52.220;9.884;2023-05-20T09:13:09;101564.19;;;14.60;74.84
16690;BME280;8458;52.220;9.884;2023-05-20T09:15:36;101569.25;;;14.63;74.95
16690;BME280;8458;52.220;9.884;2023-05-20T09:18:05;101570.94;;;14.64;74.24
16690;BME280;8458;52.220;9.884;2023-05-20T09:20:33;101576.78;;;14.68;74.47
16690;BME280;8458;52.220;9.884;2023-05-20T09:23:03;101570.72;;;14.81;73.77
16690;BME280;8458;52.220;9.884;2023-05-20T09:25:31;101566.88;;;14.93;73.14
16690;BME280;8458;52.220;9.884;2023-05-20T09:27:58;101566.91;;;15.03;73.39
16690;BME280;8458;52.220;9.884;2023-05-20T09:30:25;101557.44;;;15.14;71.83
16690;BME280;8458;52.220;9.884;2023-05-20T09:32:52;101563.06;;;15.24;71.52
16690;BME280;8458;52.220;9.884;2023-05-20T09:35:20;101556.38;;;15.31;71.34
16690;BME280;8458;52.220;9.884;2023-05-20T09:37:47;101555.00;;;15.44;71.19
16690;BME280;8458;52.220;9.884;2023-05-20T09:40:20;101553.63;;;15.56;70.75
16690;BME280;8458;52.220;9.884;2023-05-20T09:42:52;101553.63;;;15.72;70.97
16690;BME280;8458;52.220;9.884;2023-05-20T09:45:19;101561.47;;;15.75;69.43
16690;BME280;8458;52.220;9.884;2023-05-20T09:47:46;101557.31;;;15.77;68.72
16690;BME280;8458;52.220;9.884;2023-05-20T09:50:13;101549.75;;;15.78;68.88
16690;BME280;8458;52.220;9.884;2023-05-20T09:52:41;101545.28;;;15.82;68.86
16690;BME280;8458;52.220;9.884;2023-05-20T09:55:09;101558.44;;;15.92;69.35
16690;BME280;8458;52.220;9.884;2023-05-20T09:57:37;101560.94;;;15.93;68.20
16690;BME280;8458;52.220;9.884;2023-05-20T10:00:05;101557.31;;;16.03;68.89
16690;BME280;8458;52.220;9.884;2023-05-20T10:02:33;101561.22;;;16.12;68.19
16690;BME280;8458;52.220;9.884;2023-05-20T10:05:02;101557.31;;;16.13;68.75
16690;BME280;8458;52.220;9.884;2023-05-20T10:07:46;101555.91;;;16.16;68.55
16690;BME280;8458;52.220;9.884;2023-05-20T10:10:25;101550.31;;;16.16;68.08
16690;BME280;8458;52.220;9.884;2023-05-20T10:13:04;101542.47;;;16.18;67.97
16690;BME280;8458;52.220;9.884;2023-05-20T10:15:41;101545.53;;;16.17;67.47
16690;BME280;8458;52.220;9.884;2023-05-20T10:18:19;101553.66;;;16.18;68.01
16690;BME280;8458;52.220;9.884;2023-05-20T10:20:50;101547.50;;;16.21;67.35
16690;BME280;8458;52.220;9.884;2023-05-20T10:23:21;101541.91;;;16.21;67.81
16690;BME280;8458;52.220;9.884;2023-05-20T10:25:51;101548.03;;;16.23;69.54
16690;BME280;8458;52.220;9.884;2023-05-20T10:28:27;101540.78;;;16.22;66.76
16690;BME280;8458;52.220;9.884;2023-05-20T10:30:54;101532.41;;;16.22;67.33
16690;BME280;8458;52.220;9.884;2023-05-20T10:33:21;101530.44;;;16.23;68.23
16690;BME280;8458;52.220;9.884;2023-05-20T10:35:49;101527.06;;;16.26;69.04
16690;BME280;8458;52.220;9.884;2023-05-20T10:38:16;101528.75;;;16.27;67.92
16690;BME280;8458;52.220;9.884;2023-05-20T10:40:43;101531.25;;;16.34;68.21
16690;BME280;8458;52.220;9.884;2023-05-20T10:43:10;101521.16;;;16.43;68.50
16690;BME280;8458;52.220;9.884;2023-05-20T10:45:48;101528.41;;;16.49;68.05
16690;BME280;8458;52.220;9.884;2023-05-20T10:48:25;101531.19;;;16.54;68.63
16690;BME280;8458;52.220;9.884;2023-05-20T10:50:56;101530.63;;;16.57;68.12
16690;BME280;8458;52.220;9.884;2023-05-20T10:53:25;101522.50;;;16.56;69.44
16690;BME280;8458;52.220;9.884;2023-05-20T10:55:53;101518.88;;;16.55;68.96
16690;BME280;8458;52.220;9.884;2023-05-20T10:58:21;101518.03;;;16.55;68.11
16690;BME280;8458;52.220;9.884;2023-05-20T11:00:53;101516.66;;;16.52;68.12
16690;BME280;8458;52.220;9.884;2023-05-20T11:03:21;101517.75;;;16.51;69.01
16690;BME280;8458;52.220;9.884;2023-05-20T11:05:48;101509.66;;;16.49;69.16
16690;BME280;8458;52.220;9.884;2023-05-20T11:08:15;101511.06;;;16.47;69.14
16690;BME280;8458;52.220;9.884;2023-05-20T11:10:41;101516.66;;;16.47;67.70
16690;BME280;8458;52.220;9.884;2023-05-20T11:13:11;101520.59;;;16.46;68.00
16690;BME280;8458;52.220;9.884;2023-05-20T11:15:38;101508.56;;;16.45;67.75
16690;BME280;8458;52.220;9.884;2023-05-20T11:18:06;101510.25;;;16.41;67.83
16690;BME280;8458;52.220;9.884;2023-05-20T11:20:33;101502.66;;;16.42;67.78
16690;BME280;8458;52.220;9.884;2023-05-20T11:23:00;101500.44;;;16.39;67.82
16690;BME280;8458;52.220;9.884;2023-05-20T11:25:27;101498.22;;;16.36;68.17
16690;BME280;8458;52.220;9.884;2023-05-20T11:27:54;101483.13;;;16.31;68.13
16690;BME280;8458;52.220;9.884;2023-05-20T11:30:21;101491.53;;;16.31;69.31
16690;BME280;8458;52.220;9.884;2023-05-20T11:32:58;101484.25;;;16.30;68.94
16690;BME280;8458;52.220;9.884;2023-05-20T11:35:27;101484.53;;;16.29;68.45
16690;BME280;8458;52.220;9.884;2023-05-20T11:37:55;101471.38;;;16.29;68.50
16690;BME280;8458;52.220;9.884;2023-05-20T11:40:23;101473.59;;;16.33;69.65
16690;BME280;8458;52.220;9.884;2023-05-20T11:42:52;101463.81;;;16.35;70.08
16690;BME280;8458;52.220;9.884;2023-05-20T11:45:19;101468.56;;;16.35;68.80
16690;BME280;8458;52.220;9.884;2023-05-20T11:47:45;101472.75;;;16.37;68.79
16690;BME280;8458;52.220;9.884;2023-05-20T11:50:15;101462.94;;;16.40;69.37
16690;BME280;8458;52.220;9.884;2023-05-20T11:52:44;101464.63;;;16.41;69.40
16690;BME280;8458;52.220;9.884;2023-05-20T11:55:10;101455.66;;;16.44;69.16
16690;BME280;8458;52.220;9.884;2023-05-20T11:57:37;101453.38;;;16.51;68.62
16690;BME280;8458;52.220;9.884;2023-05-20T12:00:05;101452.22;;;16.57;68.72
16690;BME280;8458;52.220;9.884;2023-05-20T12:02:34;101455.03;;;16.57;68.26
16690;BME280;8458;52.220;9.884;2023-05-20T12:05:01;101451.97;;;16.54;68.76
16690;BME280;8458;52.220;9.884;2023-05-20T12:07:28;101447.22;;;16.49;69.22
16690;BME280;8458;52.220;9.884;2023-05-20T12:09:56;101448.94;;;16.40;70.09
16690;BME280;8458;52.220;9.884;2023-05-20T12:12:22;101440.84;;;16.38;69.77
16690;BME280;8458;52.220;9.884;2023-05-20T12:14:49;101438.28;;;16.47;68.93
16690;BME280;8458;52.220;9.884;2023-05-20T12:17:16;101443.31;;;16.50;68.44
16690;BME280;8458;52.220;9.884;2023-05-20T12:19:42;101439.94;;;16.48;69.11
16690;BME280;8458;52.220;9.884;2023-05-20T12:22:09;101448.34;;;16.48;69.77
16690;BME280;8458;52.220;9.884;2023-05-20T12:24:35;101459.00;;;16.46;69.56
16690;BME280;8458;52.220;9.884;2023-05-20T12:27:03;101447.81;;;16.46;69.77
16690;BME280;8458;52.220;9.884;2023-05-20T12:29:30;101440.53;;;16.50;69.84
16690;BME280;8458;52.220;9.884;2023-05-20T12:31:57;101435.44;;;16.57;69.54
16690;BME280;8458;52.220;9.884;2023-05-20T12:34:23;101425.88;;;16.63;69.63
16690;BME280;8458;52.220;9.884;2023-05-20T12:36:50;101423.03;;;16.74;67.89
16690;BME280;8458;52.220;9.884;2023-05-20T12:39:17;101423.31;;;16.72;68.66
16690;BME280;8458;52.220;9.884;2023-05-20T12:41:44;101429.25;;;16.65;68.54
16690;BME280;8458;52.220;9.884;2023-05-20T12:44:11;101423.56;;;16.76;68.76
16690;BME280;8458;52.220;9.884;2023-05-20T12:46:38;101418.50;;;16.83;68.64
16690;BME280;8458;52.220;9.884;2023-05-20T12:49:05;101419.31;;;16.94;68.61
16690;BME280;8458;52.220;9.884;2023-05-20T12:51:31;101420.06;;;17.05;68.05
16690;BME280;8458;52.220;9.884;2023-05-20T12:53:58;101422.34;;;17.02;67.40
16690;BME280;8458;52.220;9.884;2023-05-20T12:56:25;101426.84;;;16.98;67.29
16690;BME280;8458;52.220;9.884;2023-05-20T12:58:51;101421.00;;;16.95;67.45
16690;BME280;8458;52.220;9.884;2023-05-20T13:01:19;101420.19;;;16.89;67.25